Marshall, Minnesota
Current Conditions -  °F | °C
As of 12:15 PM on Tuesday 21 Oct 2014 (Local Time) from KMML Reporting Station
Clear Clear  
Wind Chill: 64°   Ceiling: Unl
Heat Index: 64°   Visibility: 10mi
Dew Point: 39°   Wind: 18mph
Humidity: 40%   Direction: 160°SSE
Pressure: 30.06"   Gusts: 24mph
Location:  44.45°N, 95.79°W
Report Text: KMML 211715Z AUTO 16016G21KT 10SM CLR 18/04 A3006 RMK AO1
Loading
Personal Weather Stations






























Interactive Weather Map New forecast layout! Learn more

10-Day Weather Forecast

Advertisements
Track Severe Weather on mobile